sensor_id;sensor_type;location;lat;lon;timestamp;pressure;altitude;pressure_sealevel;temperature;humidity
24610;BME280;12758;47.890;11.694;2023-02-11T00:00:00;95589.31;;;-2.06;100.00
24610;BME280;12758;47.890;11.694;2023-02-11T00:02:26;95585.66;;;-2.05;100.00
24610;BME280;12758;47.890;11.694;2023-02-11T00:04:54;95588.50;;;-2.00;100.00
24610;BME280;12758;47.890;11.694;2023-02-11T00:07:20;95584.41;;;-2.09;100.00
24610;BME280;12758;47.890;11.694;2023-02-11T00:09:46;95580.75;;;-2.08;100.00
24610;BME280;12758;47.890;11.694;2023-02-11T00:12:12;95577.03;;;-1.94;100.00
24610;BME280;12758;47.890;11.694;2023-02-11T00:14:39;95577.41;;;-1.83;100.00
24610;BME280;12758;47.890;11.694;2023-02-11T00:17:06;95580.09;;;-1.90;100.00
24610;BME280;12758;47.890;11.694;2023-02-11T00:19:32;95579.09;;;-2.09;100.00
24610;BME280;12758;47.890;11.694;2023-02-11T00:21:58;95583.59;;;-2.09;100.00
24610;BME280;12758;47.890;11.694;2023-02-11T00:24:24;95580.34;;;-2.12;100.00
24610;BME280;12758;47.890;11.694;2023-02-11T00:26:50;95584.44;;;-2.29;100.00
24610;BME280;12758;47.890;11.694;2023-02-11T00:29:16;95580.75;;;-2.28;100.00
24610;BME280;12758;47.890;11.694;2023-02-11T00:31:42;95576.84;;;-2.39;100.00
24610;BME280;12758;47.890;11.694;2023-02-11T00:34:08;95579.91;;;-2.28;100.00
24610;BME280;12758;47.890;11.694;2023-02-11T00:36:35;95573.38;;;-2.32;100.00
24610;BME280;12758;47.890;11.694;2023-02-11T00:39:01;95569.91;;;-2.40;100.00
24610;BME280;12758;47.890;11.694;2023-02-11T00:41:27;95576.22;;;-2.47;100.00
24610;BME280;12758;47.890;11.694;2023-02-11T00:43:53;95568.47;;;-2.49;100.00
24610;BME280;12758;47.890;11.694;2023-02-11T00:46:20;95571.72;;;-2.60;100.00
24610;BME280;12758;47.890;11.694;2023-02-11T00:48:46;95569.28;;;-2.68;100.00
24610;BME280;12758;47.890;11.694;2023-02-11T00:51:13;95568.66;;;-2.70;100.00
24610;BME280;12758;47.890;11.694;2023-02-11T00:53:39;95575.41;;;-2.48;100.00
24610;BME280;12758;47.890;11.694;2023-02-11T00:56:05;95570.31;;;-2.43;100.00
24610;BME280;12758;47.890;11.694;2023-02-11T00:58:32;95569.09;;;-2.40;100.00
24610;BME280;12758;47.890;11.694;2023-02-11T01:00:58;95576.84;;;-2.39;100.00
24610;BME280;12758;47.890;11.694;2023-02-11T01:03:24;95569.09;;;-2.47;100.00
24610;BME280;12758;47.890;11.694;2023-02-11T01:05:50;95573.78;;;-2.36;100.00
24610;BME280;12758;47.890;11.694;2023-02-11T01:08:16;95567.25;;;-2.40;100.00
24610;BME280;12758;47.890;11.694;2023-02-11T01:10:42;95570.53;;;-2.24;100.00
24610;BME280;12758;47.890;11.694;2023-02-11T01:13:08;95571.13;;;-2.22;100.00
24610;BME280;12758;47.890;11.694;2023-02-11T01:15:34;95570.53;;;-2.24;100.00
24610;BME280;12758;47.890;11.694;2023-02-11T01:18:00;95568.84;;;-2.12;100.00
24610;BME280;12758;47.890;11.694;2023-02-11T01:20:27;95562.31;;;-2.03;100.00
24610;BME280;12758;47.890;11.694;2023-02-11T01:22:54;95549.00;;;-2.03;100.00
24610;BME280;12758;47.890;11.694;2023-02-11T01:25:20;95547.16;;;-1.96;100.00
24610;BME280;12758;47.890;11.694;2023-02-11T01:27:46;95545.91;;;-1.93;100.00
24610;BME280;12758;47.890;11.694;2023-02-11T01:30:13;95540.59;;;-2.00;100.00
24610;BME280;12758;47.890;11.694;2023-02-11T01:32:39;95548.81;;;-2.01;100.00
24610;BME280;12758;47.890;11.694;2023-02-11T01:35:06;95550.03;;;-2.04;100.00
24610;BME280;12758;47.890;11.694;2023-02-11T01:37:32;95544.50;;;-2.09;100.00
24610;BME280;12758;47.890;11.694;2023-02-11T01:39:58;95560.09;;;-2.26;100.00
24610;BME280;12758;47.890;11.694;2023-02-11T01:42:24;95557.25;;;-2.31;100.00
24610;BME280;12758;47.890;11.694;2023-02-11T01:44:52;95556.81;;;-2.35;100.00
24610;BME280;12758;47.890;11.694;2023-02-11T01:47:19;95552.53;;;-2.62;100.00
24610;BME280;12758;47.890;11.694;2023-02-11T01:49:47;95554.56;;;-2.44;100.00
24610;BME280;12758;47.890;11.694;2023-02-11T01:52:16;95549.06;;;-2.56;100.00
24610;BME280;12758;47.890;11.694;2023-02-11T01:54:48;95544.75;;;-2.70;100.00
24610;BME280;12758;47.890;11.694;2023-02-11T01:57:35;95545.19;;;-2.47;100.00
24610;BME280;12758;47.890;11.694;2023-02-11T02:00:10;95540.25;;;-2.37;100.00
24610;BME280;12758;47.890;11.694;2023-02-11T02:02:41;95541.69;;;-2.41;100.00
24610;BME280;12758;47.890;11.694;2023-02-11T02:05:16;95539.63;;;-2.39;100.00
24610;BME280;12758;47.890;11.694;2023-02-11T02:07:48;95527.56;;;-2.41;100.00
24610;BME280;12758;47.890;11.694;2023-02-11T02:10:20;95526.16;;;-2.37;100.00
24610;BME280;12758;47.890;11.694;2023-02-11T02:12:48;95522.25;;;-2.35;100.00
24610;BME280;12758;47.890;11.694;2023-02-11T02:15:18;95523.50;;;-2.30;100.00
24610;BME280;12758;47.890;11.694;2023-02-11T02:17:48;95523.06;;;-2.27;100.00
24610;BME280;12758;47.890;11.694;2023-02-11T02:23:58;95530.06;;;-2.53;100.00
24610;BME280;12758;47.890;11.694;2023-02-11T02:32:25;95529.22;;;-2.47;100.00
24610;BME280;12758;47.890;11.694;2023-02-11T02:34:57;95530.03;;;-2.40;100.00
24610;BME280;12758;47.890;11.694;2023-02-11T02:37:29;95530.84;;;-2.46;100.00
24610;BME280;12758;47.890;11.694;2023-02-11T02:39:58;95517.56;;;-2.59;100.00
24610;BME280;12758;47.890;11.694;2023-02-11T02:42:25;95516.13;;;-2.68;100.00
24610;BME280;12758;47.890;11.694;2023-02-11T02:44:52;95513.25;;;-2.80;100.00
24610;BME280;12758;47.890;11.694;2023-02-11T02:47:18;95516.53;;;-2.71;100.00
24610;BME280;12758;47.890;11.694;2023-02-11T02:49:44;95508.97;;;-2.61;100.00
24610;BME280;12758;47.890;11.694;2023-02-11T02:52:15;95506.72;;;-2.51;100.00
24610;BME280;12758;47.890;11.694;2023-02-11T02:55:05;95503.88;;;-2.43;100.00
24610;BME280;12758;47.890;11.694;2023-02-11T02:57:37;95507.56;;;-2.44;100.00
24610;BME280;12758;47.890;11.694;2023-02-11T03:00:14;95504.28;;;-2.46;100.00
24610;BME280;12758;47.890;11.694;2023-02-11T03:02:49;95499.78;;;-2.52;100.00
24610;BME280;12758;47.890;11.694;2023-02-11T03:05:20;95508.38;;;-2.43;100.00
24610;BME280;12758;47.890;11.694;2023-02-11T03:07:49;95505.72;;;-2.43;100.00
24610;BME280;12758;47.890;11.694;2023-02-11T03:10:20;95506.31;;;-2.41;100.00
24610;BME280;12758;47.890;11.694;2023-02-11T03:12:47;95507.16;;;-2.41;100.00
24610;BME280;12758;47.890;11.694;2023-02-11T03:15:14;95507.97;;;-2.47;100.00
24610;BME280;12758;47.890;11.694;2023-02-11T03:17:44;95510.81;;;-2.48;100.00
24610;BME280;12758;47.890;11.694;2023-02-11T03:20:14;95510.00;;;-2.49;100.00
24610;BME280;12758;47.890;11.694;2023-02-11T03:22:45;95507.97;;;-2.47;100.00
24610;BME280;12758;47.890;11.694;2023-02-11T03:25:12;95500.19;;;-2.55;100.00
24610;BME280;12758;47.890;11.694;2023-02-11T03:27:41;95503.06;;;-2.50;100.00
24610;BME280;12758;47.890;11.694;2023-02-11T03:30:10;95493.03;;;-2.48;100.00
24610;BME280;12758;47.890;11.694;2023-02-11T03:32:40;95491.19;;;-2.54;100.00
24610;BME280;12758;47.890;11.694;2023-02-11T03:35:11;95487.53;;;-2.53;100.00
24610;BME280;12758;47.890;11.694;2023-02-11T03:37:41;95483.84;;;-2.52;100.00
24610;BME280;12758;47.890;11.694;2023-02-11T03:40:10;95488.34;;;-2.59;100.00
24610;BME280;12758;47.890;11.694;2023-02-11T03:42:40;95474.66;;;-2.69;100.00
24610;BME280;12758;47.890;11.694;2023-02-11T03:45:09;95472.41;;;-2.86;100.00
24610;BME280;12758;47.890;11.694;2023-02-11T03:47:37;95477.28;;;-2.89;100.00
24610;BME280;12758;47.890;11.694;2023-02-11T03:50:06;95479.34;;;-2.85;100.00
24610;BME280;12758;47.890;11.694;2023-02-11T03:52:33;95470.34;;;-3.10;100.00
24610;BME280;12758;47.890;11.694;2023-02-11T03:54:59;95473.56;;;-3.35;100.00
24610;BME280;12758;47.890;11.694;2023-02-11T03:57:27;95474.78;;;-3.44;100.00
24610;BME280;12758;47.890;11.694;2023-02-11T03:59:54;95467.84;;;-3.32;100.00
24610;BME280;12758;47.890;11.694;2023-02-11T04:02:21;95466.66;;;-3.29;100.00
24610;BME280;12758;47.890;11.694;2023-02-11T04:04:50;95467.47;;;-3.29;100.00
24610;BME280;12758;47.890;11.694;2023-02-11T04:07:16;95462.94;;;-3.35;100.00
24610;BME280;12758;47.890;11.694;2023-02-11T04:09:42;95458.84;;;-3.44;100.00
24610;BME280;12758;47.890;11.694;2023-02-11T04:12:08;95455.38;;;-3.38;100.00
24610;BME280;12758;47.890;11.694;2023-02-11T04:14:34;95454.31;;;-3.63;100.00
24610;BME280;12758;47.890;11.694;2023-02-11T04:17:01;95463.72;;;-3.54;100.00
24610;BME280;12758;47.890;11.694;2023-02-11T04:19:27;95469.41;;;-3.64;100.00
24610;BME280;12758;47.890;11.694;2023-02-11T04:21:53;95460.66;;;-3.58;100.00
24610;BME280;12758;47.890;11.694;2023-02-11T04:24:19;95459.22;;;-3.60;100.00
24610;BME280;12758;47.890;11.694;2023-02-11T04:26:45;95454.13;;;-3.62;100.00
24610;BME280;12758;47.890;11.694;2023-02-11T04:29:11;95447.81;;;-3.54;100.00
24610;BME280;12758;47.890;11.694;2023-02-11T04:31:38;95455.16;;;-3.56;100.00
24610;BME280;12758;47.890;11.694;2023-02-11T04:34:04;95456.78;;;-3.55;100.00
24610;BME280;12758;47.890;11.694;2023-02-11T04:36:30;95471.50;;;-3.59;100.00
24610;BME280;12758;47.890;11.694;2023-02-11T04:38:56;95475.34;;;-3.68;100.00
24610;BME280;12758;47.890;11.694;2023-02-11T04:41:22;95475.19;;;-3.40;100.00
24610;BME280;12758;47.890;11.694;2023-02-11T04:43:48;95477.66;;;-3.25;100.00
24610;BME280;12758;47.890;11.694;2023-02-11T04:46:14;95464.41;;;-3.12;100.00
24610;BME280;12758;47.890;11.694;2023-02-11T04:48:41;95460.53;;;-3.10;100.00
24610;BME280;12758;47.890;11.694;2023-02-11T04:51:07;95464.63;;;-3.07;100.00
24610;BME280;12758;47.890;11.694;2023-02-11T04:53:33;95469.31;;;-3.22;100.00
24610;BME280;12758;47.890;11.694;2023-02-11T04:55:59;95465.81;;;-3.36;100.00
24610;BME280;12758;47.890;11.694;2023-02-11T04:58:25;95470.31;;;-3.37;100.00
24610;BME280;12758;47.890;11.694;2023-02-11T05:00:51;95474.38;;;-3.41;100.00
24610;BME280;12758;47.890;11.694;2023-02-11T05:03:17;95482.19;;;-3.19;100.00
24610;BME280;12758;47.890;11.694;2023-02-11T05:05:44;95487.50;;;-3.19;100.00
24610;BME280;12758;47.890;11.694;2023-02-11T05:08:10;95475.25;;;-3.20;100.00
24610;BME280;12758;47.890;11.694;2023-02-11T05:10:36;95475.22;;;-3.34;100.00
24610;BME280;12758;47.890;11.694;2023-02-11T05:13:02;95480.50;;;-3.40;100.00
24610;BME280;12758;47.890;11.694;2023-02-11T05:15:28;95476.66;;;-3.24;100.00
24610;BME280;12758;47.890;11.694;2023-02-11T05:17:54;95466.47;;;-3.14;100.00
24610;BME280;12758;47.890;11.694;2023-02-11T05:20:21;95476.88;;;-3.19;100.00
24610;BME280;12758;47.890;11.694;2023-02-11T05:22:47;95482.41;;;-3.01;100.00
24610;BME280;12758;47.890;11.694;2023-02-11T05:25:13;95475.25;;;-2.94;100.00
24610;BME280;12758;47.890;11.694;2023-02-11T05:27:39;95491.81;;;-2.92;100.00
24610;BME280;12758;47.890;11.694;2023-02-11T05:30:06;95488.31;;;-3.12;100.00
24610;BME280;12758;47.890;11.694;2023-02-11T05:32:33;95501.00;;;-3.01;100.00
24610;BME280;12758;47.890;11.694;2023-02-11T05:34:59;95493.63;;;-3.12;100.00
24610;BME280;12758;47.890;11.694;2023-02-11T05:37:25;95503.84;;;-3.09;100.00
24610;BME280;12758;47.890;11.694;2023-02-11T05:39:51;95499.13;;;-3.34;100.00
24610;BME280;12758;47.890;11.694;2023-02-11T05:42:17;95497.31;;;-3.07;100.00
24610;BME280;12758;47.890;11.694;2023-02-11T05:44:43;95495.28;;;-2.91;100.00
24610;BME280;12758;47.890;11.694;2023-02-11T05:47:09;95502.44;;;-2.78;100.00
24610;BME280;12758;47.890;11.694;2023-02-11T05:49:35;95498.13;;;-2.79;100.00
24610;BME280;12758;47.890;11.694;2023-02-11T05:52:02;95496.09;;;-2.84;100.00
24610;BME280;12758;47.890;11.694;2023-02-11T05:54:28;95485.69;;;-2.86;100.00
24610;BME280;12758;47.890;11.694;2023-02-11T05:56:54;95485.47;;;-2.77;100.00
24610;BME280;12758;47.890;11.694;2023-02-11T05:59:20;95478.53;;;-2.78;100.00
24610;BME280;12758;47.890;11.694;2023-02-11T06:01:46;95485.88;;;-2.81;100.00
24610;BME280;12758;47.890;11.694;2023-02-11T06:04:12;95475.25;;;-2.81;100.00
24610;BME280;12758;47.890;11.694;2023-02-11T06:06:38;95472.00;;;-2.76;100.00
24610;BME280;12758;47.890;11.694;2023-02-11T06:09:04;95463.00;;;-2.75;100.00
24610;BME280;12758;47.890;11.694;2023-02-11T06:11:30;95460.53;;;-2.76;100.00
24610;BME280;12758;47.890;11.694;2023-02-11T06:13:57;95468.50;;;-2.83;100.00
24610;BME280;12758;47.890;11.694;2023-02-11T06:16:23;95467.47;;;-3.02;100.00
24610;BME280;12758;47.890;11.694;2023-02-11T06:18:49;95468.72;;;-3.11;100.00
24610;BME280;12758;47.890;11.694;2023-02-11T06:21:15;95473.56;;;-3.35;100.00
24610;BME280;12758;47.890;11.694;2023-02-11T06:23:41;95463.16;;;-3.49;100.00
24610;BME280;12758;47.890;11.694;2023-02-11T06:26:08;95462.53;;;-3.45;100.00
24610;BME280;12758;47.890;11.694;2023-02-11T06:28:40;95464.16;;;-3.44;100.00
24610;BME280;12758;47.890;11.694;2023-02-11T06:31:07;95465.41;;;-3.40;100.00
24610;BME280;12758;47.890;11.694;2023-02-11T06:33:34;95467.03;;;-3.45;100.00
24610;BME280;12758;47.890;11.694;2023-02-11T06:36:01;95466.38;;;-3.54;100.00
24610;BME280;12758;47.890;11.694;2023-02-11T06:38:27;95460.91;;;-3.46;100.00
24610;BME280;12758;47.890;11.694;2023-02-11T06:40:53;95477.22;;;-3.56;100.00
24610;BME280;12758;47.890;11.694;2023-02-11T06:43:19;95484.94;;;-3.54;100.00
24610;BME280;12758;47.890;11.694;2023-02-11T06:45:51;95484.94;;;-3.54;100.00
24610;BME280;12758;47.890;11.694;2023-02-11T06:48:18;95498.41;;;-3.62;100.00
24610;BME280;12758;47.890;11.694;2023-02-11T06:50:44;95500.28;;;-3.56;100.00
24610;BME280;12758;47.890;11.694;2023-02-11T06:53:10;95488.66;;;-3.48;100.00
24610;BME280;12758;47.890;11.694;2023-02-11T06:55:36;95496.00;;;-3.44;100.00
24610;BME280;12758;47.890;11.694;2023-02-11T06:58:02;95498.84;;;-3.52;100.00
24610;BME280;12758;47.890;11.694;2023-02-11T07:00:28;95496.38;;;-3.54;100.00
24610;BME280;12758;47.890;11.694;2023-02-11T07:02:54;95493.97;;;-3.48;100.00
24610;BME280;12758;47.890;11.694;2023-02-11T07:05:21;95488.25;;;-3.52;100.00
24610;BME280;12758;47.890;11.694;2023-02-11T07:07:47;95487.03;;;-3.49;100.00
24610;BME280;12758;47.890;11.694;2023-02-11T07:10:13;95476.81;;;-3.46;100.00
24610;BME280;12758;47.890;11.694;2023-02-11T07:12:39;95478.47;;;-3.38;100.00
24610;BME280;12758;47.890;11.694;2023-02-11T07:15:06;95478.88;;;-3.35;100.00
24610;BME280;12758;47.890;11.694;2023-02-11T07:17:33;95479.69;;;-3.28;100.00
24610;BME280;12758;47.890;11.694;2023-02-11T07:19:59;95477.03;;;-3.28;100.00
24610;BME280;12758;47.890;11.694;2023-02-11T07:22:25;95469.53;;;-3.24;100.00
24610;BME280;12758;47.890;11.694;2023-02-11T07:24:51;95473.59;;;-3.21;100.00
24610;BME280;12758;47.890;11.694;2023-02-11T07:27:17;95481.97;;;-3.18;100.00
24610;BME280;12758;47.890;11.694;2023-02-11T07:29:43;95485.88;;;-3.14;100.00
24610;BME280;12758;47.890;11.694;2023-02-11T07:32:11;95488.31;;;-3.12;100.00
24610;BME280;12758;47.890;11.694;2023-02-11T07:34:37;95506.31;;;-3.01;100.00
24610;BME280;12758;47.890;11.694;2023-02-11T07:37:03;95509.97;;;-2.95;100.00
24610;BME280;12758;47.890;11.694;2023-02-11T07:39:30;95503.84;;;-2.96;100.00
24610;BME280;12758;47.890;11.694;2023-02-11T07:41:56;95499.16;;;-2.87;100.00
24610;BME280;12758;47.890;11.694;2023-02-11T07:44:22;95496.91;;;-2.84;100.00
24610;BME280;12758;47.890;11.694;2023-02-11T07:46:48;95495.69;;;-2.88;100.00
24610;BME280;12758;47.890;11.694;2023-02-11T07:49:15;95494.66;;;-2.87;100.00
24610;BME280;12758;47.890;11.694;2023-02-11T07:51:41;95482.59;;;-2.83;100.00
24610;BME280;12758;47.890;11.694;2023-02-11T07:54:07;95478.13;;;-2.82;100.00
24610;BME280;12758;47.890;11.694;2023-02-11T07:56:35;95466.25;;;-2.79;100.00
24610;BME280;12758;47.890;11.694;2023-02-11T07:59:02;95485.47;;;-2.77;100.00
24610;BME280;12758;47.890;11.694;2023-02-11T08:01:28;95487.09;;;-2.76;100.00
24610;BME280;12758;47.890;11.694;2023-02-11T08:03:55;95494.47;;;-2.72;100.00
24610;BME280;12758;47.890;11.694;2023-02-11T08:06:23;95494.66;;;-2.73;100.00
24610;BME280;12758;47.890;11.694;2023-02-11T08:08:49;95514.91;;;-2.72;100.00
24610;BME280;12758;47.890;11.694;2023-02-11T08:11:16;95517.56;;;-2.66;100.00
24610;BME280;12758;47.890;11.694;2023-02-11T08:13:44;95521.84;;;-2.58;100.00
24610;BME280;12758;47.890;11.694;2023-02-11T08:16:15;95501.41;;;-2.58;100.00
24610;BME280;12758;47.890;11.694;2023-02-11T08:18:42;95505.50;;;-2.55;100.00
24610;BME280;12758;47.890;11.694;2023-02-11T08:21:08;95505.50;;;-2.55;100.00
24610;BME280;12758;47.890;11.694;2023-02-11T08:23:34;95492.03;;;-2.47;100.00
24610;BME280;12758;47.890;11.694;2023-02-11T08:26:01;95484.63;;;-2.45;100.00
24610;BME280;12758;47.890;11.694;2023-02-11T08:28:28;95477.47;;;-2.44;100.00
24610;BME280;12758;47.890;11.694;2023-02-11T08:30:54;95481.38;;;-2.40;100.00
24610;BME280;12758;47.890;11.694;2023-02-11T08:33:20;95473.78;;;-2.37;100.00
24610;BME280;12758;47.890;11.694;2023-02-11T08:35:46;95458.03;;;-2.31;100.00
24610;BME280;12758;47.890;11.694;2023-02-11T08:38:12;95451.03;;;-2.19;100.00
24610;BME280;12758;47.890;11.694;2023-02-11T08:40:38;95446.88;;;-1.89;100.00
24610;BME280;12758;47.890;11.694;2023-02-11T08:43:04;95452.91;;;-1.68;100.00
24610;BME280;12758;47.890;11.694;2023-02-11T08:45:30;95461.09;;;-1.63;100.00
24610;BME280;12758;47.890;11.694;2023-02-11T08:47:57;95461.44;;;-1.53;100.00
24610;BME280;12758;47.890;11.694;2023-02-11T08:50:23;95466.34;;;-1.50;100.00
24610;BME280;12758;47.890;11.694;2023-02-11T08:52:50;95464.28;;;-1.54;100.00
24610;BME280;12758;47.890;11.694;2023-02-11T08:55:17;95466.75;;;-1.53;100.00
24610;BME280;12758;47.890;11.694;2023-02-11T08:57:43;95473.28;;;-1.49;100.00
24610;BME280;12758;47.890;11.694;2023-02-11T09:00:11;95478.81;;;-1.44;100.00
24610;BME280;12758;47.890;11.694;2023-02-11T09:02:37;95471.59;;;-1.36;100.00
24610;BME280;12758;47.890;11.694;2023-02-11T09:05:05;95470.72;;;-1.30;100.00
24610;BME280;12758;47.890;11.694;2023-02-11T09:07:31;95461.22;;;-1.20;100.00
24610;BME280;12758;47.890;11.694;2023-02-11T09:09:57;95459.94;;;-1.10;100.00
24610;BME280;12758;47.890;11.694;2023-02-11T09:12:23;95476.22;;;-0.94;93.07
24610;BME280;12758;47.890;11.694;2023-02-11T09:14:50;95477.50;;;-0.71;97.79
24610;BME280;12758;47.890;11.694;2023-02-11T09:17:16;95479.28;;;-0.65;91.12
24610;BME280;12758;47.890;11.694;2023-02-11T09:19:42;95481.31;;;-0.60;90.56
24610;BME280;12758;47.890;11.694;2023-02-11T09:22:08;95471.56;;;-0.73;92.12
24610;BME280;12758;47.890;11.694;2023-02-11T09:24:35;95486.72;;;-0.67;92.37
24610;BME280;12758;47.890;11.694;2023-02-11T09:27:01;95488.16;;;-0.71;97.78
24610;BME280;12758;47.890;11.694;2023-02-11T09:29:27;95490.63;;;-0.44;91.63
24610;BME280;12758;47.890;11.694;2023-02-11T09:31:53;95493.28;;;-0.44;90.95
24610;BME280;12758;47.890;11.694;2023-02-11T09:34:19;95496.38;;;-0.48;95.31
24610;BME280;12758;47.890;11.694;2023-02-11T09:36:45;95491.06;;;-0.48;95.00
24610;BME280;12758;47.890;11.694;2023-02-11T09:39:13;95504.22;;;-0.53;95.54
24610;BME280;12758;47.890;11.694;2023-02-11T09:41:53;95498.88;;;-0.53;95.56
24610;BME280;12758;47.890;11.694;2023-02-11T09:44:25;95489.44;;;-0.30;95.83
24610;BME280;12758;47.890;11.694;2023-02-11T09:46:53;95467.97;;;-0.35;94.51
24610;BME280;12758;47.890;11.694;2023-02-11T09:49:22;95456.91;;;-0.39;92.20
24610;BME280;12758;47.890;11.694;2023-02-11T09:51:52;95456.53;;;-0.42;90.58
24610;BME280;12758;47.890;11.694;2023-02-11T09:54:27;95449.13;;;-0.40;88.79
24610;BME280;12758;47.890;11.694;2023-02-11T09:56:56;95438.94;;;-0.25;86.33
24610;BME280;12758;47.890;11.694;2023-02-11T09:59:22;95443.25;;;-0.06;83.42
24610;BME280;12758;47.890;11.694;2023-02-11T10:01:49;95438.81;;;0.07;82.39
24610;BME280;12758;47.890;11.694;2023-02-11T10:04:23;95440.41;;;0.26;80.43
24610;BME280;12758;47.890;11.694;2023-02-11T10:06:53;95434.22;;;0.44;78.64
24610;BME280;12758;47.890;11.694;2023-02-11T10:09:27;95429.44;;;0.64;77.98
24610;BME280;12758;47.890;11.694;2023-02-11T10:12:02;95430.28;;;0.77;76.03
24610;BME280;12758;47.890;11.694;2023-02-11T10:14:49;95421.00;;;0.49;75.13
24610;BME280;12758;47.890;11.694;2023-02-11T10:17:25;95416.28;;;0.63;74.15
24610;BME280;12758;47.890;11.694;2023-02-11T10:20:02;95409.25;;;0.80;71.91
24610;BME280;12758;47.890;11.694;2023-02-11T10:22:32;95411.72;;;0.82;72.33
24610;BME280;12758;47.890;11.694;2023-02-11T10:25:04;95415.00;;;0.96;70.84
24610;BME280;12758;47.890;11.694;2023-02-11T10:27:36;95412.88;;;0.86;69.08
24610;BME280;12758;47.890;11.694;2023-02-11T10:30:05;95399.19;;;0.94;69.41
24610;BME280;12758;47.890;11.694;2023-02-11T10:32:38;95404.75;;;0.92;70.31
24610;BME280;12758;47.890;11.694;2023-02-11T10:35:12;95406.44;;;1.17;69.45
24610;BME280;12758;47.890;11.694;2023-02-11T10:37:39;95411.56;;;1.30;69.00
24610;BME280;12758;47.890;11.694;2023-02-11T10:40:12;95406.94;;;1.49;67.50
24610;BME280;12758;47.890;11.694;2023-02-11T10:42:38;95409.47;;;1.79;65.65
24610;BME280;12758;47.890;11.694;2023-02-11T10:45:09;95408.09;;;1.65;69.63
24610;BME280;12758;47.890;11.694;2023-02-11T10:47:42;95402.47;;;1.67;67.42
24610;BME280;12758;47.890;11.694;2023-02-11T10:50:21;95409.81;;;1.83;68.44
24610;BME280;12758;47.890;11.694;2023-02-11T10:52:47;95404.81;;;1.63;69.43
24610;BME280;12758;47.890;11.694;2023-02-11T10:55:16;95404.94;;;1.56;68.49
24610;BME280;12758;47.890;11.694;2023-02-11T10:57:49;95406.59;;;1.57;68.71
24610;BME280;12758;47.890;11.694;2023-02-11T11:00:32;95404.34;;;1.66;69.67
24610;BME280;12758;47.890;11.694;2023-02-11T11:03:02;95402.75;;;2.29;63.19
24610;BME280;12758;47.890;11.694;2023-02-11T11:05:31;95393.66;;;2.30;61.13
24610;BME280;12758;47.890;11.694;2023-02-11T11:07:59;95395.47;;;2.41;63.88
24610;BME280;12758;47.890;11.694;2023-02-11T11:10:36;95392.31;;;2.16;62.30
24610;BME280;12758;47.890;11.694;2023-02-11T11:13:23;95395.81;;;2.45;56.09
24610;BME280;12758;47.890;11.694;2023-02-11T11:16:05;95379.91;;;2.26;57.99
24610;BME280;12758;47.890;11.694;2023-02-11T11:18:31;95375.63;;;2.54;56.80
24610;BME280;12758;47.890;11.694;2023-02-11T11:20:58;95376.19;;;2.56;53.60
24610;BME280;12758;47.890;11.694;2023-02-11T11:23:25;95368.75;;;2.92;51.43
24610;BME280;12758;47.890;11.694;2023-02-11T11:26:04;95365.53;;;2.73;51.68
24610;BME280;12758;47.890;11.694;2023-02-11T11:28:33;95361.94;;;2.67;56.73
24610;BME280;12758;47.890;11.694;2023-02-11T11:31:03;95356.66;;;2.44;54.51
24610;BME280;12758;47.890;11.694;2023-02-11T11:33:32;95364.25;;;3.09;51.62
24610;BME280;12758;47.890;11.694;2023-02-11T11:36:01;95358.56;;;3.06;52.41
24610;BME280;12758;47.890;11.694;2023-02-11T11:38:28;95359.50;;;3.33;52.19
24610;BME280;12758;47.890;11.694;2023-02-11T11:41:20;95374.19;;;4.03;50.24
24610;BME280;12758;47.890;11.694;2023-02-11T11:43:55;95367.31;;;4.12;47.80
24610;BME280;12758;47.890;11.694;2023-02-11T11:46:23;95381.19;;;4.04;49.96
24610;BME280;12758;47.890;11.694;2023-02-11T11:48:49;95379.25;;;4.22;45.91
24610;BME280;12758;47.890;11.694;2023-02-11T11:51:18;95373.84;;;3.78;49.92
24610;BME280;12758;47.890;11.694;2023-02-11T11:53:45;95371.41;;;3.76;47.35
24610;BME280;12758;47.890;11.694;2023-02-11T11:56:17;95371.94;;;3.95;46.56
24610;BME280;12758;47.890;11.694;2023-02-11T11:58:44;95370.56;;;3.92;44.22
24610;BME280;12758;47.890;11.694;2023-02-11T12:01:18;95373.38;;;4.03;43.78
24610;BME280;12758;47.890;11.694;2023-02-11T12:06:42;95367.31;;;4.12;45.29
24610;BME280;12758;47.890;11.694;2023-02-11T12:09:20;95363.19;;;4.27;42.12
24610;BME280;12758;47.890;11.694;2023-02-11T12:11:58;95363.56;;;4.13;41.69
24610;BME280;12758;47.890;11.694;2023-02-11T12:14:33;95365.00;;;3.99;45.22
24610;BME280;12758;47.890;11.694;2023-02-11T12:17:05;95361.66;;;4.85;40.78
24610;BME280;12758;47.890;11.694;2023-02-11T12:19:42;95361.75;;;4.68;40.77
24610;BME280;12758;47.890;11.694;2023-02-11T12:22:19;95359.56;;;3.55;48.33
24610;BME280;12758;47.890;11.694;2023-02-11T12:24:55;95360.97;;;4.46;40.82
24610;BME280;12758;47.890;11.694;2023-02-11T12:27:34;95355.03;;;4.65;39.50
24610;BME280;12758;47.890;11.694;2023-02-11T12:30:08;95370.88;;;4.94;39.01
24610;BME280;12758;47.890;11.694;2023-02-11T12:32:43;95373.47;;;5.11;41.85
24610;BME280;12758;47.890;11.694;2023-02-11T12:35:30;95376.06;;;6.07;38.09
24610;BME280;12758;47.890;11.694;2023-02-11T12:38:09;95363.81;;;6.47;38.30
24610;BME280;12758;47.890;11.694;2023-02-11T12:40:42;95360.50;;;6.25;37.13
24610;BME280;12758;47.890;11.694;2023-02-11T12:43:16;95341.94;;;5.86;35.36
24610;BME280;12758;47.890;11.694;2023-02-11T12:45:48;95347.81;;;5.03;35.85
24610;BME280;12758;47.890;11.694;2023-02-11T12:48:26;95340.09;;;4.53;36.67
24610;BME280;12758;47.890;11.694;2023-02-11T12:51:00;95342.44;;;4.44;37.23
24610;BME280;12758;47.890;11.694;2023-02-11T12:53:43;95346.81;;;5.09;37.89
24610;BME280;12758;47.890;11.694;2023-02-11T12:56:16;95343.44;;;4.92;36.59
24610;BME280;12758;47.890;11.694;2023-02-11T12:58:46;95347.53;;;5.32;36.51
24610;BME280;12758;47.890;11.694;2023-02-11T13:01:15;95340.81;;;5.77;33.71
24610;BME280;12758;47.890;11.694;2023-02-11T13:03:44;95340.72;;;5.61;34.66